Time;durP1;ratioP1;P1;durP2;ratioP2;P2;SDS_P1;SDS_P2;PMS_P1;PMS_P2;Temp;Humidity;BMP_temperature;BMP_pressure;BME280_temperature;BME280_humidity;BME280_pressure;Samples;Min_cycle;Max_cycle;Signal;HPM_P1;HPM_P2
2023/04/15 00:00:03;;;;;;;3.47;2.35;;;16.30;51.60;;;;;;5073677;28;20696;-72
2023/04/15 00:02:29;;;;;;;2.40;1.73;;;16.30;51.60;;;;;;5074092;28;20179;-75
2023/04/15 00:04:55;;;;;;;2.33;1.95;;;16.30;51.60;;;;;;5073312;28;20171;-71
2023/04/15 00:07:20;;;;;;;2.67;1.98;;;16.30;51.60;;;;;;5073554;28;20314;-70
2023/04/15 00:09:46;;;;;;;2.30;2.08;;;16.30;51.60;;;;;;5073702;28;20542;-71
2023/04/15 00:12:12;;;;;;;3.00;2.08;;;16.30;51.70;;;;;;5072679;28;20225;-73
2023/04/15 00:14:37;;;;;;;2.15;1.95;;;16.30;51.70;;;;;;5073606;28;20344;-74
2023/04/15 00:17:03;;;;;;;1.73;1.63;;;16.20;51.70;;;;;;5073828;28;20178;-73
2023/04/15 00:19:29;;;;;;;2.00;1.83;;;16.20;51.60;;;;;;5072532;28;20198;-72
2023/04/15 00:21:55;;;;;;;2.38;1.88;;;16.30;51.80;;;;;;5073881;28;20235;-71
2023/04/15 00:24:21;;;;;;;2.65;2.00;;;16.20;51.70;;;;;;5073276;28;20591;-72
2023/04/15 00:26:46;;;;;;;2.80;1.90;;;16.20;51.70;;;;;;5072771;28;20198;-71
2023/04/15 00:29:12;;;;;;;1.83;1.52;;;16.20;51.70;;;;;;5072279;28;20220;-71
2023/04/15 00:31:37;;;;;;;2.85;2.10;;;16.20;51.80;;;;;;5073567;28;20174;-73
2023/04/15 00:34:03;;;;;;;2.60;2.03;;;16.20;51.80;;;;;;5072756;28;20209;-74
2023/04/15 00:36:29;;;;;;;1.92;1.83;;;16.20;51.80;;;;;;5073052;28;20198;-74
2023/04/15 00:38:54;;;;;;;2.55;1.90;;;16.20;51.80;;;;;;5072948;28;20171;-71
2023/04/15 00:41:20;;;;;;;1.90;1.80;;;16.20;51.80;;;;;;5072256;28;20167;-72
2023/04/15 00:43:45;;;;;;;2.05;1.90;;;16.20;51.80;;;;;;5073061;28;20240;-72
2023/04/15 00:46:12;;;;;;;2.05;1.85;;;16.20;51.80;;;;;;5072606;28;20664;-72
2023/04/15 00:48:37;;;;;;;2.75;2.17;;;16.20;52.50;;;;;;5071020;28;20629;-72
2023/04/15 00:51:03;;;;;;;1.80;1.70;;;16.20;51.90;;;;;;5071651;28;20182;-71
2023/04/15 00:53:29;;;;;;;2.47;2.28;;;16.20;51.90;;;;;;5072041;28;20181;-72
2023/04/15 00:55:55;;;;;;;1.90;1.80;;;16.20;51.90;;;;;;5073056;28;20171;-72
2023/04/15 00:58:20;;;;;;;2.10;1.85;;;16.20;51.90;;;;;;5072373;28;20274;-75
2023/04/15 01:00:46;;;;;;;2.15;1.95;;;16.20;51.90;;;;;;5072243;28;20167;-72
2023/04/15 01:03:12;;;;;;;2.20;2.00;;;16.10;51.90;;;;;;5072588;28;20170;-72
2023/04/15 01:05:38;;;;;;;2.05;1.95;;;16.20;52.00;;;;;;5072520;28;20704;-70
2023/04/15 01:08:04;;;;;;;1.83;1.67;;;16.10;51.90;;;;;;5072099;28;20341;-71
2023/04/15 01:10:30;;;;;;;1.85;1.75;;;16.20;52.10;;;;;;5072695;28;20174;-74
2023/04/15 01:12:55;;;;;;;2.25;1.45;;;16.10;52.00;;;;;;5072410;28;20174;-73
2023/04/15 01:15:21;;;;;;;1.83;1.60;;;16.10;52.00;;;;;;5071702;28;20171;-74
2023/04/15 01:17:47;;;;;;;1.77;1.60;;;16.10;52.00;;;;;;5071394;28;20167;-72
2023/04/15 01:20:12;;;;;;;2.35;1.40;;;16.10;52.00;;;;;;5070984;28;20170;-72
2023/04/15 01:22:38;;;;;;;2.13;1.92;;;16.10;52.10;;;;;;5071564;28;20587;-73
2023/04/15 01:25:11;;;;;;;1.98;1.75;;;16.10;52.10;;;;;;5071224;28;20636;-71
2023/04/15 01:27:38;;;;;;;1.70;1.60;;;16.10;52.10;;;;;;5072442;28;20221;-72
2023/04/15 01:30:05;;;;;;;1.67;1.58;;;16.10;52.20;;;;;;5071858;28;20257;-73
2023/04/15 01:32:31;;;;;;;1.80;1.70;;;16.10;52.10;;;;;;5072419;28;20232;-78
2023/04/15 01:34:56;;;;;;;2.25;1.83;;;16.10;52.20;;;;;;5072547;28;20171;-73
2023/04/15 01:37:22;;;;;;;1.52;1.42;;;16.10;52.10;;;;;;5071333;28;20171;-72
2023/04/15 01:39:47;;;;;;;1.50;1.40;;;16.10;52.10;;;;;;5071744;28;20697;-73
2023/04/15 01:42:13;;;;;;;2.78;1.80;;;16.10;52.10;;;;;;5071825;28;20670;-72
2023/04/15 01:44:38;;;;;;;2.00;1.60;;;16.10;52.10;;;;;;5071669;28;20178;-72
2023/04/15 01:47:04;;;;;;;2.10;1.70;;;16.10;52.10;;;;;;5072322;28;20304;-72
2023/04/15 01:49:30;;;;;;;2.17;1.90;;;16.10;52.10;;;;;;5072729;28;20254;-71
2023/04/15 01:51:58;;;;;;;1.65;1.50;;;16.10;52.10;;;;;;5071459;28;20668;-71
2023/04/15 01:54:23;;;;;;;1.45;1.35;;;16.10;52.10;;;;;;5071931;28;20170;-73
2023/04/15 01:56:49;;;;;;;2.42;2.10;;;16.10;52.20;;;;;;5071387;28;20176;-72
2023/04/15 01:59:15;;;;;;;1.90;1.73;;;16.00;52.10;;;;;;5071985;28;20191;-72
2023/04/15 02:01:41;;;;;;;1.73;1.60;;;16.00;52.20;;;;;;5072269;28;20178;-73
2023/04/15 02:04:07;;;;;;;1.70;1.60;;;16.00;52.20;;;;;;5071192;28;20170;-72
2023/04/15 02:06:33;;;;;;;2.42;1.70;;;16.00;52.20;;;;;;5072051;28;20256;-73
2023/04/15 02:08:58;;;;;;;1.80;1.60;;;16.00;52.20;;;;;;5071942;28;20640;-72
2023/04/15 02:11:24;;;;;;;2.15;2.00;;;16.00;52.20;;;;;;5071059;28;21151;-73
2023/04/15 02:13:49;;;;;;;1.65;1.55;;;16.00;52.20;;;;;;5071843;28;20181;-72
2023/04/15 02:16:16;;;;;;;1.95;1.75;;;16.00;52.20;;;;;;5071358;28;20177;-73
2023/04/15 02:18:43;;;;;;;2.38;2.00;;;16.00;52.20;;;;;;5071079;28;20175;-71
2023/04/15 02:21:08;;;;;;;1.85;1.60;;;16.00;52.20;;;;;;5071223;28;20596;-72
2023/04/15 02:23:34;;;;;;;1.70;1.60;;;16.00;52.30;;;;;;5071752;28;20167;-72
2023/04/15 02:25:59;;;;;;;1.65;1.55;;;16.00;52.30;;;;;;5070928;28;20202;-70
2023/04/15 02:28:26;;;;;;;1.80;1.50;;;16.00;52.30;;;;;;5071662;28;20208;-73
2023/04/15 02:30:53;;;;;;;1.60;1.50;;;16.00;52.30;;;;;;5071697;28;20652;-70
2023/04/15 02:33:19;;;;;;;1.73;1.60;;;16.00;52.30;;;;;;5070748;28;20555;-74
2023/04/15 02:35:44;;;;;;;1.50;1.40;;;16.00;52.30;;;;;;5071646;28;20724;-73
2023/04/15 02:38:10;;;;;;;1.52;1.42;;;16.00;52.40;;;;;;5071532;28;20344;-72
2023/04/15 02:40:36;;;;;;;1.75;1.65;;;16.00;52.40;;;;;;5070777;28;20569;-73
2023/04/15 02:43:02;;;;;;;1.65;1.50;;;16.00;52.40;;;;;;5071758;28;20675;-72
2023/04/15 02:45:27;;;;;;;1.75;1.65;;;16.00;52.40;;;;;;5071112;28;20263;-72
2023/04/15 02:47:53;;;;;;;2.45;1.45;;;15.90;52.40;;;;;;5070803;28;20189;-72
2023/04/15 02:50:19;;;;;;;2.83;1.80;;;16.00;52.50;;;;;;5071175;28;20178;-72
2023/04/15 02:52:45;;;;;;;1.40;1.30;;;15.90;52.50;;;;;;5073876;28;20587;-71
2023/04/15 02:55:11;;;;;;;1.80;1.70;;;15.90;52.50;;;;;;5073946;28;20167;-72
2023/04/15 02:57:38;;;;;;;2.55;1.80;;;16.00;52.50;;;;;;5075243;28;20175;-73
2023/04/15 03:00:04;;;;;;;1.50;1.40;;;16.00;52.50;;;;;;5074148;28;20171;-73
2023/04/15 03:02:34;;;;;;;1.50;1.40;;;15.90;52.40;;;;;;5074885;28;20558;-74
2023/04/15 03:05:00;;;;;;;1.60;1.50;;;16.00;52.60;;;;;;5075038;28;20198;-71
2023/04/15 03:07:25;;;;;;;1.83;1.73;;;15.90;52.50;;;;;;5073720;28;20237;-72
2023/04/15 03:09:51;;;;;;;1.58;1.48;;;15.90;52.50;;;;;;5074932;28;20594;-71
2023/04/15 03:12:16;;;;;;;1.70;1.60;;;16.00;52.50;;;;;;5074414;28;20705;-73
2023/04/15 03:14:42;;;;;;;1.70;1.60;;;15.90;52.50;;;;;;5072588;28;20184;-74
2023/04/15 03:17:08;;;;;;;1.90;1.70;;;15.90;52.60;;;;;;5074300;28;20269;-74
2023/04/15 03:19:33;;;;;;;1.60;1.50;;;15.90;52.50;;;;;;5074653;28;20182;-73
2023/04/15 03:21:59;;;;;;;1.70;1.60;;;15.90;52.50;;;;;;5073663;28;20269;-71
2023/04/15 03:24:25;;;;;;;1.70;1.60;;;15.90;52.60;;;;;;5074156;28;20254;-71
2023/04/15 03:26:54;;;;;;;1.83;1.60;;;15.90;52.50;;;;;;5074276;28;20218;-71
2023/04/15 03:29:19;;;;;;;1.52;1.40;;;15.90;52.50;;;;;;5073328;28;20216;-72
2023/04/15 03:31:45;;;;;;;1.80;1.70;;;15.90;52.60;;;;;;5074391;28;20182;-72
2023/04/15 03:34:10;;;;;;;1.70;1.60;;;15.90;52.60;;;;;;5073983;28;20193;-73
2023/04/15 03:36:36;;;;;;;1.50;1.40;;;15.90;52.60;;;;;;5073557;28;20175;-74
2023/04/15 03:39:02;;;;;;;1.60;1.50;;;15.90;52.60;;;;;;5074167;28;20170;-72
2023/04/15 03:41:27;;;;;;;1.60;1.45;;;15.80;52.60;;;;;;5073964;28;20194;-73
2023/04/15 03:43:53;;;;;;;1.52;1.33;;;15.90;52.60;;;;;;5073522;28;20170;-72
2023/04/15 03:46:18;;;;;;;1.65;1.55;;;15.90;52.70;;;;;;5073728;28;20206;-72
2023/04/15 03:48:44;;;;;;;1.60;1.50;;;15.80;52.70;;;;;;5073963;28;20217;-71
2023/04/15 03:51:10;;;;;;;1.60;1.50;;;15.90;52.60;;;;;;5072930;28;20170;-70
2023/04/15 03:53:36;;;;;;;1.48;1.38;;;15.80;52.60;;;;;;5073965;28;20602;-72
2023/04/15 03:56:01;;;;;;;2.42;1.73;;;15.80;52.70;;;;;;5073839;28;20648;-73
2023/04/15 03:58:27;;;;;;;1.67;1.58;;;15.80;52.70;;;;;;5072670;28;20190;-74
2023/04/15 04:00:53;;;;;;;1.70;1.60;;;15.80;52.70;;;;;;5073662;28;20174;-73
2023/04/15 04:03:19;;;;;;;2.05;1.70;;;15.80;52.70;;;;;;5072626;28;20186;-72
2023/04/15 04:05:44;;;;;;;1.63;1.52;;;15.80;52.70;;;;;;5073605;28;20629;-72
2023/04/15 04:08:12;;;;;;;1.73;1.63;;;15.80;52.70;;;;;;5072320;28;20209;-72
2023/04/15 04:10:38;;;;;;;1.35;1.30;;;15.80;52.70;;;;;;5072793;28;21005;-72
2023/04/15 04:13:04;;;;;;;1.65;1.55;;;15.80;52.70;;;;;;5073587;28;20221;-73
2023/04/15 04:15:29;;;;;;;1.65;1.55;;;15.80;52.70;;;;;;5073385;28;20506;-72
2023/04/15 04:17:55;;;;;;;1.50;1.40;;;15.80;52.70;;;;;;5072828;28;20270;-72
2023/04/15 04:20:21;;;;;;;1.95;1.85;;;15.80;52.80;;;;;;5072921;28;20372;-72
2023/04/15 04:22:49;;;;;;;1.52;1.42;;;15.80;52.70;;;;;;5073485;28;20228;-72
2023/04/15 04:25:15;;;;;;;1.58;1.48;;;15.80;52.80;;;;;;5072501;28;20175;-71
2023/04/15 04:27:40;;;;;;;1.60;1.50;;;15.80;52.80;;;;;;5073218;28;20236;-71
2023/04/15 04:30:07;;;;;;;1.73;1.63;;;15.80;52.80;;;;;;5072994;28;20167;-72
2023/04/15 04:32:32;;;;;;;1.60;1.50;;;15.80;52.80;;;;;;5072542;28;20192;-75
2023/04/15 04:34:58;;;;;;;2.00;1.50;;;15.80;52.90;;;;;;5073109;28;20180;-72
2023/04/15 04:37:23;;;;;;;2.05;1.60;;;15.70;52.80;;;;;;5072874;28;20171;-72
2023/04/15 04:39:49;;;;;;;1.23;1.13;;;15.80;52.90;;;;;;5072392;28;20171;-72
2023/04/15 04:42:15;;;;;;;1.75;1.65;;;15.70;52.80;;;;;;5072853;28;20689;-72
2023/04/15 04:44:40;;;;;;;1.50;1.40;;;15.70;52.80;;;;;;5073070;28;20175;-72
2023/04/15 04:47:06;;;;;;;1.40;1.30;;;15.70;52.90;;;;;;5071675;28;20232;-70
2023/04/15 04:49:32;;;;;;;1.73;1.63;;;15.70;52.90;;;;;;5072824;28;20174;-71
2023/04/15 04:51:57;;;;;;;1.60;1.50;;;15.70;52.90;;;;;;5072930;28;20174;-71
2023/04/15 04:54:23;;;;;;;1.70;1.60;;;15.70;52.90;;;;;;5071749;28;20189;-73
2023/04/15 04:56:48;;;;;;;1.65;1.55;;;15.70;52.90;;;;;;5072828;28;20189;-73
2023/04/15 04:59:14;;;;;;;1.33;1.30;;;15.70;52.90;;;;;;5072303;28;20181;-73
2023/04/15 05:01:39;;;;;;;1.67;1.30;;;15.70;52.90;;;;;;5071789;28;20214;-74
2023/04/15 05:04:06;;;;;;;1.88;1.77;;;15.70;53.00;;;;;;5072492;28;20198;-73
2023/04/15 05:06:32;;;;;;;1.77;1.65;;;15.70;52.90;;;;;;5072517;28;20206;-72
2023/04/15 05:08:57;;;;;;;1.70;1.60;;;15.70;53.00;;;;;;5071782;28;20220;-71
2023/04/15 05:11:23;;;;;;;1.42;1.38;;;15.70;53.00;;;;;;5072178;28;20171;-72
2023/04/15 05:13:48;;;;;;;1.27;1.17;;;15.70;52.90;;;;;;5070075;28;20174;-73
2023/04/15 05:16:14;;;;;;;1.83;1.63;;;15.70;53.00;;;;;;5071979;28;20177;-73
2023/04/15 05:18:39;;;;;;;1.63;1.52;;;15.70;53.00;;;;;;5072455;28;20177;-73
2023/04/15 05:21:05;;;;;;;1.67;1.58;;;15.70;52.90;;;;;;5070037;28;20229;-73
2023/04/15 05:23:31;;;;;;;1.58;1.48;;;15.70;52.90;;;;;;5072750;28;20181;-71
2023/04/15 05:25:56;;;;;;;1.55;1.45;;;15.70;53.00;;;;;;5071210;28;20225;-72
2023/04/15 05:28:22;;;;;;;1.65;1.55;;;15.70;53.00;;;;;;5071253;28;20611;-73
2023/04/15 05:30:47;;;;;;;1.40;1.30;;;15.70;52.90;;;;;;5072406;28;20253;-72
2023/04/15 05:33:13;;;;;;;1.67;1.58;;;15.70;53.00;;;;;;5071972;28;20544;-73
2023/04/15 05:35:38;;;;;;;1.42;1.33;;;15.70;53.00;;;;;;5070283;28;20535;-73
2023/04/15 05:38:04;;;;;;;1.20;1.20;;;15.70;52.90;;;;;;5072211;28;20181;-73
2023/04/15 05:40:30;;;;;;;1.45;1.35;;;15.70;52.90;;;;;;5072243;28;20166;-73
2023/04/15 05:42:55;;;;;;;1.60;1.45;;;15.70;52.90;;;;;;5071630;28;20198;-72
2023/04/15 05:45:21;;;;;;;1.60;1.50;;;15.70;52.90;;;;;;5070720;28;20645;-72
2023/04/15 05:47:49;;;;;;;1.65;1.55;;;15.70;52.90;;;;;;5072062;28;20787;-71
2023/04/15 05:50:14;;;;;;;1.38;1.27;;;15.70;52.90;;;;;;5071029;28;20166;-71
2023/04/15 05:52:40;;;;;;;1.58;1.35;;;15.70;52.90;;;;;;5071991;28;20181;-72
2023/04/15 05:55:06;;;;;;;1.23;1.20;;;15.60;52.80;;;;;;5070671;28;20174;-72
2023/04/15 05:57:31;;;;;;;1.35;1.30;;;15.80;52.90;;;;;;5071564;28;20631;-73
2023/04/15 05:59:57;;;;;;;1.40;1.20;;;15.70;52.90;;;;;;5072065;28;20178;-73
2023/04/15 06:02:22;;;;;;;1.20;1.15;;;15.80;52.80;;;;;;5071724;28;20166;-73
2023/04/15 06:04:48;;;;;;;1.20;1.20;;;15.90;52.70;;;;;;5071178;28;20236;-71
2023/04/15 06:07:14;;;;;;;1.27;1.17;;;16.00;52.70;;;;;;5071626;28;20234;-71
2023/04/15 06:09:40;;;;;;;1.33;1.23;;;16.10;52.60;;;;;;5072291;28;20245;-72
2023/04/15 06:12:10;;;;;;;1.20;1.10;;;16.20;52.50;;;;;;5070901;28;20705;-72
2023/04/15 06:14:37;;;;;;;1.40;1.30;;;16.40;52.40;;;;;;5072015;28;20186;-75
2023/04/15 06:17:02;;;;;;;1.33;1.10;;;16.50;52.30;;;;;;5071370;28;20672;-73
2023/04/15 06:19:28;;;;;;;1.52;1.42;;;16.70;52.00;;;;;;5071890;28;20179;-73
2023/04/15 06:21:53;;;;;;;1.23;1.10;;;16.90;51.70;;;;;;5072033;28;20230;-72
2023/04/15 06:24:19;;;;;;;1.30;1.17;;;17.00;51.60;;;;;;5071351;28;20198;-72
2023/04/15 06:26:44;;;;;;;1.20;1.10;;;17.10;51.40;;;;;;5074719;28;20598;-71
2023/04/15 06:29:10;;;;;;;1.20;1.10;;;17.20;51.30;;;;;;5075738;28;20656;-70
2023/04/15 06:31:36;;;;;;;1.00;1.00;;;17.30;51.30;;;;;;5075125;28;20166;-73
2023/04/15 06:34:01;;;;;;;1.20;1.10;;;17.40;51.10;;;;;;5075818;28;20178;-73
2023/04/15 06:36:27;;;;;;;1.02;0.90;;;17.40;51.10;;;;;;5075707;28;20198;-73
2023/04/15 06:38:52;;;;;;;1.33;1.23;;;17.50;51.00;;;;;;5075064;28;20615;-71
2023/04/15 06:41:18;;;;;;;0.90;0.90;;;17.50;51.10;;;;;;5075470;28;20197;-72
2023/04/15 06:43:43;;;;;;;0.90;0.90;;;17.50;51.10;;;;;;5075488;28;20182;-70
2023/04/15 06:46:09;;;;;;;0.80;0.80;;;17.50;51.10;;;;;;5074677;28;20285;-71
2023/04/15 06:48:35;;;;;;;1.35;1.00;;;17.60;51.10;;;;;;5075474;28;20170;-71
2023/04/15 06:51:00;;;;;;;1.35;1.10;;;17.60;51.20;;;;;;5075801;28;20181;-70
2023/04/15 06:53:26;;;;;;;1.02;1.00;;;17.60;51.10;;;;;;5074715;28;20182;-71
2023/04/15 06:55:52;;;;;;;0.82;0.82;;;17.60;51.00;;;;;;5075528;28;20170;-72
2023/04/15 06:58:18;;;;;;;0.90;0.90;;;17.60;51.10;;;;;;5075139;28;20640;-75
2023/04/15 07:00:43;;;;;;;0.80;0.80;;;17.60;51.10;;;;;;5074699;28;20563;-73
2023/04/15 07:03:10;;;;;;;1.10;1.00;;;17.60;51.10;;;;;;5073788;28;20336;-71
2023/04/15 07:05:35;;;;;;;1.92;1.10;;;17.50;51.20;;;;;;5075341;28;20193;-71
2023/04/15 07:08:01;;;;;;;1.30;1.20;;;17.50;51.40;;;;;;5074760;28;20178;-70
2023/04/15 07:10:26;;;;;;;1.35;1.23;;;17.40;51.50;;;;;;5074922;28;20166;-72
2023/04/15 07:12:52;;;;;;;1.08;1.08;;;17.40;51.60;;;;;;5075376;28;20341;-72
2023/04/15 07:15:17;;;;;;;0.70;0.70;;;17.50;51.60;;;;;;5074234;28;20265;-73
2023/04/15 07:17:43;;;;;;;0.85;0.82;;;17.40;51.60;;;;;;5074917;28;20178;-72
2023/04/15 07:20:08;;;;;;;0.85;0.85;;;17.50;51.70;;;;;;5074782;28;20201;-72
2023/04/15 07:22:34;;;;;;;0.77;0.77;;;17.40;51.70;;;;;;5073854;28;20256;-73
2023/04/15 07:24:59;;;;;;;1.20;0.90;;;17.40;51.80;;;;;;5074936;28;20222;-72
2023/04/15 07:27:26;;;;;;;0.90;0.90;;;17.40;51.80;;;;;;5074078;28;20576;-73
2023/04/15 07:29:52;;;;;;;1.00;1.00;;;17.30;52.10;;;;;;5074979;28;20221;-72
2023/04/15 07:32:17;;;;;;;1.27;1.17;;;17.30;51.90;;;;;;5074495;28;20202;-76
2023/04/15 07:34:43;;;;;;;1.20;1.10;;;17.20;51.90;;;;;;5073939;28;20261;-74
2023/04/15 07:37:15;;;;;;;1.05;0.95;;;17.20;52.00;;;;;;5073685;28;20183;-75
2023/04/15 07:39:40;;;;;;;1.20;1.10;;;17.20;52.10;;;;;;5073828;28;20258;-75
2023/04/15 07:42:06;;;;;;;1.25;1.15;;;17.10;52.30;;;;;;5073308;28;20262;-73
2023/04/15 07:44:31;;;;;;;1.25;1.10;;;17.10;52.60;;;;;;5072728;28;20520;-74
2023/04/15 07:46:57;;;;;;;1.50;0.90;;;17.10;52.60;;;;;;5074174;28;20214;-80
2023/04/15 07:49:23;;;;;;;1.13;1.10;;;17.10;52.70;;;;;;5073092;28;20216;-79
2023/04/15 07:51:49;;;;;;;1.45;1.15;;;17.10;52.80;;;;;;5072561;28;20182;-77
2023/04/15 07:54:15;;;;;;;2.13;1.20;;;17.10;52.90;;;;;;5071813;28;20178;-77
2023/04/15 07:56:40;;;;;;;2.33;1.00;;;17.10;53.00;;;;;;5072748;28;20632;-76
2023/04/15 07:59:06;;;;;;;1.40;1.30;;;17.10;53.00;;;;;;5073940;28;20179;-79
2023/04/15 08:01:32;;;;;;;2.05;1.20;;;17.10;53.10;;;;;;5074362;28;20167;-79
2023/04/15 08:03:58;;;;;;;1.42;1.10;;;17.10;53.20;;;;;;5072467;28;20171;-76
2023/04/15 08:06:24;;;;;;;2.72;0.95;;;17.10;53.30;;;;;;5073968;28;20556;-84
2023/04/15 08:08:49;;;;;;;1.60;1.10;;;17.10;53.40;;;;;;5073910;28;20174;-79
2023/04/15 08:11:15;;;;;;;1.83;1.15;;;17.20;53.50;;;;;;5073046;28;20193;-76
2023/04/15 08:13:41;;;;;;;3.70;1.33;;;17.20;53.40;;;;;;5074148;28;20198;-88
2023/04/15 08:16:20;;;;;;;1.27;1.20;;;17.30;53.40;;;;;;5056127;28;20638;-79
2023/04/15 08:18:46;;;;;;;2.15;1.25;;;17.30;53.40;;;;;;5073328;28;20181;-83
2023/04/15 08:21:12;;;;;;;3.08;1.10;;;17.30;53.40;;;;;;5073318;28;20677;-80
2023/04/15 08:23:38;;;;;;;1.27;1.02;;;17.30;53.40;;;;;;5071888;28;20178;-77
2023/04/15 08:26:04;;;;;;;1.63;1.00;;;17.30;53.40;;;;;;5055990;28;20198;-76
2023/04/15 08:28:29;;;;;;;1.10;1.00;;;17.20;53.40;;;;;;5073731;28;20178;-80
2023/04/15 08:30:55;;;;;;;0.80;0.80;;;17.30;53.60;;;;;;5072881;28;20373;-74
2023/04/15 08:33:20;;;;;;;1.02;0.98;;;17.30;53.70;;;;;;5073484;28;20189;-79
2023/04/15 08:35:47;;;;;;;1.85;1.13;;;17.30;53.50;;;;;;5073735;28;20170;-80
2023/04/15 08:38:12;;;;;;;1.42;1.20;;;17.30;53.70;;;;;;5072399;28;20174;-79
2023/04/15 08:40:42;;;;;;;2.08;1.30;;;17.20;53.80;;;;;;5073585;28;20176;-79
2023/04/15 08:43:10;;;;;;;1.00;1.00;;;17.30;53.80;;;;;;5072984;28;20178;-80
2023/04/15 08:45:37;;;;;;;1.33;1.23;;;17.20;53.70;;;;;;5072943;28;20175;-79
2023/04/15 08:48:02;;;;;;;2.10;1.00;;;17.20;53.70;;;;;;5072561;28;20297;-75
2023/04/15 08:50:28;;;;;;;2.28;1.48;;;17.20;53.70;;;;;;5071537;28;20262;-73
2023/04/15 08:52:54;;;;;;;3.65;1.00;;;17.20;53.60;;;;;;5055086;28;20182;-80
2023/04/15 08:55:20;;;;;;;1.48;1.08;;;17.20;54.30;;;;;;5072988;28;20250;-72
2023/04/15 08:57:45;;;;;;;2.38;1.20;;;17.20;53.60;;;;;;5072914;28;20644;-71
2023/04/15 09:00:12;;;;;;;1.65;1.00;;;17.20;53.60;;;;;;5072095;28;20197;-72
2023/04/15 09:02:38;;;;;;;2.63;1.08;;;17.20;53.60;;;;;;5071936;28;20228;-72
2023/04/15 09:05:05;;;;;;;3.95;1.27;;;17.20;53.50;;;;;;5071804;28;20629;-71
2023/04/15 09:07:33;;;;;;;1.27;1.00;;;17.20;53.50;;;;;;5072003;28;20214;-71
2023/04/15 09:09:59;;;;;;;2.22;1.25;;;17.20;53.40;;;;;;5072751;28;20196;-68
2023/04/15 09:12:24;;;;;;;1.15;1.00;;;17.30;53.50;;;;;;5071440;28;20178;-69
2023/04/15 09:14:51;;;;;;;2.05;1.20;;;17.30;53.40;;;;;;5072466;28;20528;-70
2023/04/15 09:17:19;;;;;;;1.67;1.05;;;17.30;53.40;;;;;;5054995;28;20220;-71
2023/04/15 09:19:44;;;;;;;2.70;1.40;;;17.30;53.30;;;;;;5072959;28;20257;-70
2023/04/15 09:22:10;;;;;;;2.42;1.27;;;17.40;53.30;;;;;;5071704;28;20318;-69
2023/04/15 09:24:37;;;;;;;3.10;1.23;;;17.40;53.30;;;;;;5070498;28;20174;-67
2023/04/15 09:27:03;;;;;;;2.78;0.90;;;17.40;53.30;;;;;;5071573;28;20320;-68
2023/04/15 09:29:28;;;;;;;1.02;0.93;;;17.50;53.30;;;;;;5072523;28;20174;-70
2023/04/15 09:31:54;;;;;;;1.17;1.02;;;17.50;53.30;;;;;;5072757;28;20264;-73
2023/04/15 09:34:20;;;;;;;1.35;1.00;;;17.50;53.30;;;;;;5071773;28;20171;-73
2023/04/15 09:36:53;;;;;;;2.95;0.80;;;17.50;53.30;;;;;;5072768;28;20178;-72
2023/04/15 09:39:18;;;;;;;1.70;0.80;;;17.50;53.30;;;;;;5072018;28;20178;-72
2023/04/15 09:41:44;;;;;;;1.13;0.90;;;17.50;53.30;;;;;;5071838;28;20598;-70
2023/04/15 09:44:24;;;;;;;0.98;0.90;;;17.60;53.30;;;;;;5070863;28;20202;-71
2023/04/15 09:46:50;;;;;;;2.25;1.15;;;17.60;53.40;;;;;;5072416;28;20210;-71
2023/04/15 09:49:16;;;;;;;3.05;0.80;;;17.60;53.40;;;;;;5071536;28;20530;-67
2023/04/15 09:51:42;;;;;;;1.85;0.80;;;17.50;53.40;;;;;;5072137;28;20257;-73
2023/04/15 09:54:08;;;;;;;2.15;0.95;;;17.50;53.90;;;;;;5072278;28;20184;-71
2023/04/15 09:56:36;;;;;;;1.23;0.88;;;17.50;53.50;;;;;;5071661;28;20258;-73
2023/04/15 09:59:01;;;;;;;1.63;0.90;;;17.50;53.40;;;;;;5071065;28;20178;-73
2023/04/15 10:01:27;;;;;;;2.13;0.90;;;17.50;53.40;;;;;;5073188;28;20200;-72
2023/04/15 10:03:53;;;;;;;1.60;1.23;;;17.60;53.30;;;;;;5057881;28;20182;-72
2023/04/15 10:06:18;;;;;;;1.20;1.08;;;17.70;53.20;;;;;;5074795;28;20213;-72
2023/04/15 10:08:44;;;;;;;3.13;1.60;;;17.70;53.10;;;;;;5075394;28;20181;-70
2023/04/15 10:11:10;;;;;;;1.48;0.90;;;17.70;53.20;;;;;;5057823;28;20243;-72
2023/04/15 10:13:36;;;;;;;0.73;0.73;;;17.60;53.10;;;;;;5058560;28;20684;-71
2023/04/15 10:16:06;;;;;;;2.38;1.35;;;17.60;53.20;;;;;;5058330;28;20245;-72
2023/04/15 10:18:34;;;;;;;0.80;0.80;;;17.60;53.30;;;;;;5076211;28;20182;-72
2023/04/15 10:21:00;;;;;;;1.05;0.93;;;17.50;53.30;;;;;;5075864;28;20288;-72
2023/04/15 10:23:26;;;;;;;2.08;0.88;;;17.50;53.40;;;;;;5075230;28;20200;-70
2023/04/15 10:25:53;;;;;;;1.58;0.80;;;17.50;53.50;;;;;;5074849;28;20171;-71
2023/04/15 10:28:18;;;;;;;1.50;0.98;;;17.50;53.50;;;;;;5075828;28;20186;-73
2023/04/15 10:30:45;;;;;;;1.05;0.70;;;17.50;53.50;;;;;;5073934;28;20173;-72
2023/04/15 10:33:10;;;;;;;1.17;0.75;;;17.40;53.40;;;;;;5075530;28;20185;-73
2023/04/15 10:35:36;;;;;;;1.10;0.88;;;17.40;53.40;;;;;;5074437;28;20176;-74
2023/04/15 10:38:01;;;;;;;0.70;0.70;;;17.40;53.50;;;;;;5074045;28;20174;-72
2023/04/15 10:40:30;;;;;;;1.88;0.88;;;17.40;53.50;;;;;;5075502;28;20633;-72
2023/04/15 10:43:00;;;;;;;0.77;0.70;;;17.40;53.50;;;;;;5075746;28;20170;-70
2023/04/15 10:45:36;;;;;;;1.80;1.00;;;17.40;53.50;;;;;;5073653;28;20174;-71
2023/04/15 10:48:02;;;;;;;0.82;0.82;;;17.50;53.40;;;;;;5075509;28;20312;-70
2023/04/15 10:50:29;;;;;;;0.85;0.80;;;17.50;53.30;;;;;;5075479;28;20186;-70
2023/04/15 10:52:55;;;;;;;0.80;0.80;;;17.60;53.10;;;;;;5073499;28;20637;-69
2023/04/15 10:55:22;;;;;;;0.70;0.70;;;17.60;53.10;;;;;;5075238;28;20253;-69
2023/04/15 10:57:52;;;;;;;0.80;0.80;;;17.50;53.20;;;;;;5075889;28;20186;-71
2023/04/15 11:00:18;;;;;;;1.20;1.05;;;17.50;53.40;;;;;;5074161;28;20171;-72
2023/04/15 11:02:51;;;;;;;2.00;1.00;;;17.40;53.40;;;;;;5075233;28;20190;-71
2023/04/15 11:05:17;;;;;;;0.70;0.68;;;17.40;53.40;;;;;;5074097;28;20257;-70
2023/04/15 11:07:46;;;;;;;1.40;0.85;;;17.40;53.40;;;;;;5074966;28;20304;-70
2023/04/15 11:10:19;;;;;;;0.80;0.63;;;17.40;53.40;;;;;;5075149;28;20174;-70
2023/04/15 11:12:45;;;;;;;0.93;0.70;;;17.40;53.30;;;;;;5073444;28;20231;-71
2023/04/15 11:15:29;;;;;;;1.95;1.00;;;17.50;53.30;;;;;;5074680;28;20174;-72
2023/04/15 11:17:56;;;;;;;1.35;0.90;;;17.50;53.30;;;;;;5075025;28;20628;-71
2023/04/15 11:20:22;;;;;;;1.40;0.98;;;17.50;53.10;;;;;;5074082;28;20178;-71
2023/04/15 11:22:48;;;;;;;0.98;0.70;;;17.60;53.10;;;;;;5075013;28;20271;-71
2023/04/15 11:25:27;;;;;;;0.70;0.70;;;17.60;53.10;;;;;;5074759;28;20175;-70
2023/04/15 11:27:53;;;;;;;1.58;0.80;;;17.50;53.10;;;;;;5074351;28;20210;-69
2023/04/15 11:30:20;;;;;;;0.85;0.73;;;17.50;53.10;;;;;;5074751;28;20177;-71
2023/04/15 11:32:47;;;;;;;0.73;0.73;;;17.50;53.10;;;;;;5073446;28;20236;-73
2023/04/15 11:35:12;;;;;;;0.60;0.60;;;17.60;53.00;;;;;;5073718;28;20167;-72
2023/04/15 11:37:38;;;;;;;1.58;1.15;;;17.60;53.00;;;;;;5074736;28;20220;-71
2023/04/15 11:40:05;;;;;;;0.65;0.65;;;17.60;53.00;;;;;;5074627;28;20167;-71
2023/04/15 11:42:30;;;;;;;1.27;0.80;;;17.60;53.10;;;;;;5074234;28;20178;-72
2023/04/15 11:45:13;;;;;;;1.10;0.80;;;17.60;53.10;;;;;;5074772;28;20636;-71
2023/04/15 11:47:39;;;;;;;0.90;0.70;;;17.60;53.10;;;;;;5073819;28;20221;-70
2023/04/15 11:50:17;;;;;;;0.65;0.65;;;17.60;53.10;;;;;;5074231;28;20636;-69
2023/04/15 11:53:00;;;;;;;0.60;0.60;;;17.60;53.10;;;;;;5074384;28;20183;-70
2023/04/15 11:55:25;;;;;;;1.08;0.90;;;17.60;53.00;;;;;;5073556;28;20178;-70
2023/04/15 11:58:19;;;;;;;0.80;0.80;;;17.70;52.90;;;;;;5074518;28;20498;-72
2023/04/15 12:00:58;;;;;;;0.75;0.60;;;17.70;53.00;;;;;;5074129;28;20582;-71
2023/04/15 12:03:26;;;;;;;1.00;0.70;;;17.70;53.00;;;;;;5073481;28;20174;-69
2023/04/15 12:06:11;;;;;;;0.65;0.65;;;17.80;53.00;;;;;;5074245;28;20189;-69
2023/04/15 12:09:00;;;;;;;1.10;0.90;;;17.80;52.90;;;;;;5073646;28;20186;-70
2023/04/15 12:11:26;;;;;;;0.68;0.68;;;17.90;52.80;;;;;;5073790;28;20202;-70
2023/04/15 12:14:01;;;;;;;0.70;0.70;;;17.90;52.70;;;;;;5074183;28;20170;-71
2023/04/15 12:16:27;;;;;;;0.75;0.70;;;17.90;52.70;;;;;;5073026;28;20174;-71
2023/04/15 12:18:54;;;;;;;1.10;0.85;;;17.80;52.90;;;;;;5074012;28;20182;-70
2023/04/15 12:21:21;;;;;;;0.70;0.70;;;17.70;52.90;;;;;;5073351;28;20625;-70
2023/04/15 12:23:50;;;;;;;0.77;0.60;;;17.80;52.90;;;;;;5072782;28;20220;-69
2023/04/15 12:26:16;;;;;;;0.95;0.82;;;17.80;52.80;;;;;;5073522;28;20301;-70
2023/04/15 12:28:42;;;;;;;1.33;0.80;;;17.80;52.80;;;;;;5073584;28;20526;-70
2023/04/15 12:31:11;;;;;;;0.65;0.63;;;17.90;52.80;;;;;;5072652;28;20197;-72
2023/04/15 12:33:38;;;;;;;0.82;0.60;;;17.90;52.80;;;;;;5073505;28;20230;-72
2023/04/15 12:36:04;;;;;;;0.75;0.75;;;17.90;53.00;;;;;;5073424;28;20174;-70
2023/04/15 12:38:33;;;;;;;1.60;0.80;;;17.90;52.90;;;;;;5072689;28;20228;-71
2023/04/15 12:40:58;;;;;;;0.50;0.50;;;17.80;52.90;;;;;;5073711;28;20170;-70
2023/04/15 12:43:24;;;;;;;1.10;0.77;;;17.90;53.00;;;;;;5073243;28;20227;-70